sensor_id;sensor_type;location;lat;lon;timestamp;temperature;humidity
5850;DHT22;2951;47.712;9.400;2023-02-15T00:00:43;0.20;99.90
5850;DHT22;2951;47.712;9.400;2023-02-15T00:03:10;0.10;99.90
5850;DHT22;2951;47.712;9.400;2023-02-15T00:05:37;0.10;99.90
5850;DHT22;2951;47.712;9.400;2023-02-15T00:08:04;0.10;99.90
5850;DHT22;2951;47.712;9.400;2023-02-15T00:10:30;0.00;99.90
5850;DHT22;2951;47.712;9.400;2023-02-15T00:12:57;0.00;99.90
5850;DHT22;2951;47.712;9.400;2023-02-15T00:15:23;-0.10;99.90
5850;DHT22;2951;47.712;9.400;2023-02-15T00:17:52;-0.10;99.90
5850;DHT22;2951;47.712;9.400;2023-02-15T00:20:19;-0.20;99.90
5850;DHT22;2951;47.712;9.400;2023-02-15T00:22:45;-0.40;99.90
5850;DHT22;2951;47.712;9.400;2023-02-15T00:25:12;-0.30;99.90
5850;DHT22;2951;47.712;9.400;2023-02-15T00:27:38;-0.40;99.90
5850;DHT22;2951;47.712;9.400;2023-02-15T00:30:05;-0.40;99.90
5850;DHT22;2951;47.712;9.400;2023-02-15T00:32:32;-0.40;99.90
5850;DHT22;2951;47.712;9.400;2023-02-15T00:34:59;-0.50;99.90
5850;DHT22;2951;47.712;9.400;2023-02-15T00:37:25;-0.40;99.90
5850;DHT22;2951;47.712;9.400;2023-02-15T00:39:52;-0.30;99.90
5850;DHT22;2951;47.712;9.400;2023-02-15T00:42:18;-0.30;99.90
5850;DHT22;2951;47.712;9.400;2023-02-15T00:44:45;-0.20;99.90
5850;DHT22;2951;47.712;9.400;2023-02-15T00:47:12;-0.20;99.90
5850;DHT22;2951;47.712;9.400;2023-02-15T00:49:38;-0.30;99.90
5850;DHT22;2951;47.712;9.400;2023-02-15T00:52:05;-0.40;99.90
5850;DHT22;2951;47.712;9.400;2023-02-15T00:54:31;-0.40;99.90
5850;DHT22;2951;47.712;9.400;2023-02-15T00:56:58;-0.30;99.90
5850;DHT22;2951;47.712;9.400;2023-02-15T00:59:25;-0.40;99.90
5850;DHT22;2951;47.712;9.400;2023-02-15T01:01:51;-0.30;99.90
5850;DHT22;2951;47.712;9.400;2023-02-15T01:04:18;-0.20;99.90
5850;DHT22;2951;47.712;9.400;2023-02-15T01:06:45;-0.20;99.90
5850;DHT22;2951;47.712;9.400;2023-02-15T01:09:11;-0.20;99.90
5850;DHT22;2951;47.712;9.400;2023-02-15T01:11:39;-0.20;99.90
5850;DHT22;2951;47.712;9.400;2023-02-15T01:14:06;-0.20;99.90
5850;DHT22;2951;47.712;9.400;2023-02-15T01:16:33;-0.20;99.90
5850;DHT22;2951;47.712;9.400;2023-02-15T01:18:59;-0.10;99.90
5850;DHT22;2951;47.712;9.400;2023-02-15T01:21:28;0.00;99.90
5850;DHT22;2951;47.712;9.400;2023-02-15T01:23:55;-0.10;99.90
5850;DHT22;2951;47.712;9.400;2023-02-15T01:26:22;0.00;99.90
5850;DHT22;2951;47.712;9.400;2023-02-15T01:28:48;0.00;99.90
5850;DHT22;2951;47.712;9.400;2023-02-15T01:31:16;0.00;99.90
5850;DHT22;2951;47.712;9.400;2023-02-15T01:33:43;0.00;99.90
5850;DHT22;2951;47.712;9.400;2023-02-15T01:36:10;0.00;99.90
5850;DHT22;2951;47.712;9.400;2023-02-15T01:38:36;0.10;99.90
5850;DHT22;2951;47.712;9.400;2023-02-15T01:41:03;0.10;99.90
5850;DHT22;2951;47.712;9.400;2023-02-15T01:43:52;0.20;99.90
5850;DHT22;2951;47.712;9.400;2023-02-15T01:46:22;0.20;99.90
5850;DHT22;2951;47.712;9.400;2023-02-15T01:48:50;0.10;99.90
5850;DHT22;2951;47.712;9.400;2023-02-15T01:51:19;0.20;99.90
5850;DHT22;2951;47.712;9.400;2023-02-15T01:53:50;0.10;99.90
5850;DHT22;2951;47.712;9.400;2023-02-15T01:56:19;0.20;99.90
5850;DHT22;2951;47.712;9.400;2023-02-15T01:58:46;0.30;99.90
5850;DHT22;2951;47.712;9.400;2023-02-15T02:01:14;0.30;99.90
5850;DHT22;2951;47.712;9.400;2023-02-15T02:06:10;0.20;99.90
5850;DHT22;2951;47.712;9.400;2023-02-15T02:08:37;-0.10;99.90
5850;DHT22;2951;47.712;9.400;2023-02-15T02:11:09;-0.10;99.90
5850;DHT22;2951;47.712;9.400;2023-02-15T02:13:36;-0.30;99.90
5850;DHT22;2951;47.712;9.400;2023-02-15T02:16:05;-0.20;99.90
5850;DHT22;2951;47.712;9.400;2023-02-15T02:23:56;0.10;99.90
5850;DHT22;2951;47.712;9.400;2023-02-15T02:26:48;0.00;99.90
5850;DHT22;2951;47.712;9.400;2023-02-15T02:32:06;0.10;99.90
5850;DHT22;2951;47.712;9.400;2023-02-15T02:34:37;0.20;99.90
5850;DHT22;2951;47.712;9.400;2023-02-15T02:37:16;0.30;99.90
5850;DHT22;2951;47.712;9.400;2023-02-15T02:39:49;0.30;99.90
5850;DHT22;2951;47.712;9.400;2023-02-15T02:42:18;0.30;99.90
5850;DHT22;2951;47.712;9.400;2023-02-15T02:44:50;0.30;99.90
5850;DHT22;2951;47.712;9.400;2023-02-15T02:49:58;0.30;99.90
5850;DHT22;2951;47.712;9.400;2023-02-15T02:55:10;0.20;99.90
5850;DHT22;2951;47.712;9.400;2023-02-15T02:57:39;0.20;99.90
5850;DHT22;2951;47.712;9.400;2023-02-15T03:00:07;0.20;99.90
5850;DHT22;2951;47.712;9.400;2023-02-15T03:02:36;0.20;99.90
5850;DHT22;2951;47.712;9.400;2023-02-15T03:05:05;0.20;99.90
5850;DHT22;2951;47.712;9.400;2023-02-15T03:07:33;0.20;99.90
5850;DHT22;2951;47.712;9.400;2023-02-15T03:10:00;0.20;99.90
5850;DHT22;2951;47.712;9.400;2023-02-15T03:12:29;0.20;99.90
5850;DHT22;2951;47.712;9.400;2023-02-15T03:15:02;0.30;99.90
5850;DHT22;2951;47.712;9.400;2023-02-15T03:17:31;0.20;99.90
5850;DHT22;2951;47.712;9.400;2023-02-15T03:19:58;0.10;99.90
5850;DHT22;2951;47.712;9.400;2023-02-15T03:22:29;0.20;99.90
5850;DHT22;2951;47.712;9.400;2023-02-15T03:25:02;0.20;99.90
5850;DHT22;2951;47.712;9.400;2023-02-15T03:27:32;0.00;99.90
5850;DHT22;2951;47.712;9.400;2023-02-15T03:29:59;0.10;99.90
5850;DHT22;2951;47.712;9.400;2023-02-15T03:32:27;0.00;99.90
5850;DHT22;2951;47.712;9.400;2023-02-15T03:34:54;0.00;99.90
5850;DHT22;2951;47.712;9.400;2023-02-15T03:42:49;-0.10;99.90
5850;DHT22;2951;47.712;9.400;2023-02-15T03:45:21;0.00;99.90
5850;DHT22;2951;47.712;9.400;2023-02-15T03:47:48;0.00;99.90
5850;DHT22;2951;47.712;9.400;2023-02-15T03:53:02;-0.20;99.90
5850;DHT22;2951;47.712;9.400;2023-02-15T03:55:31;-0.30;99.90
5850;DHT22;2951;47.712;9.400;2023-02-15T03:57:57;-0.20;99.90
5850;DHT22;2951;47.712;9.400;2023-02-15T04:00:45;-0.20;99.90
5850;DHT22;2951;47.712;9.400;2023-02-15T04:03:36;-0.20;99.90
5850;DHT22;2951;47.712;9.400;2023-02-15T04:06:05;-0.30;99.90
5850;DHT22;2951;47.712;9.400;2023-02-15T04:08:32;-0.40;99.90
5850;DHT22;2951;47.712;9.400;2023-02-15T04:11:17;-0.40;99.90
5850;DHT22;2951;47.712;9.400;2023-02-15T04:13:43;-0.50;99.90
5850;DHT22;2951;47.712;9.400;2023-02-15T04:16:10;-0.70;99.90
5850;DHT22;2951;47.712;9.400;2023-02-15T04:18:38;-0.70;99.90
5850;DHT22;2951;47.712;9.400;2023-02-15T04:21:24;-0.60;99.90
5850;DHT22;2951;47.712;9.400;2023-02-15T04:24:10;-0.60;99.90
5850;DHT22;2951;47.712;9.400;2023-02-15T04:26:56;-0.60;99.90
5850;DHT22;2951;47.712;9.400;2023-02-15T04:29:23;-0.70;99.90
5850;DHT22;2951;47.712;9.400;2023-02-15T04:31:50;-0.80;99.90
5850;DHT22;2951;47.712;9.400;2023-02-15T04:34:17;-0.90;99.90
5850;DHT22;2951;47.712;9.400;2023-02-15T04:36:44;-1.00;99.90
5850;DHT22;2951;47.712;9.400;2023-02-15T04:39:14;-1.10;99.90
5850;DHT22;2951;47.712;9.400;2023-02-15T04:41:41;-1.10;99.90
5850;DHT22;2951;47.712;9.400;2023-02-15T04:44:08;-1.10;99.90
5850;DHT22;2951;47.712;9.400;2023-02-15T04:46:34;-1.00;99.90
5850;DHT22;2951;47.712;9.400;2023-02-15T04:49:01;-1.10;99.90
5850;DHT22;2951;47.712;9.400;2023-02-15T04:51:28;-1.10;99.90
5850;DHT22;2951;47.712;9.400;2023-02-15T04:53:54;-1.10;99.90
5850;DHT22;2951;47.712;9.400;2023-02-15T04:56:22;-1.00;99.90
5850;DHT22;2951;47.712;9.400;2023-02-15T04:58:49;-1.10;99.90
5850;DHT22;2951;47.712;9.400;2023-02-15T05:01:15;-1.10;99.90
5850;DHT22;2951;47.712;9.400;2023-02-15T05:03:42;-1.00;99.90
5850;DHT22;2951;47.712;9.400;2023-02-15T05:06:09;-1.00;99.90
5850;DHT22;2951;47.712;9.400;2023-02-15T05:08:36;-1.00;99.90
5850;DHT22;2951;47.712;9.400;2023-02-15T05:11:02;-0.90;99.90
5850;DHT22;2951;47.712;9.400;2023-02-15T05:13:29;-0.80;99.90
5850;DHT22;2951;47.712;9.400;2023-02-15T05:15:56;-0.70;99.90
5850;DHT22;2951;47.712;9.400;2023-02-15T05:18:22;-0.70;99.90
5850;DHT22;2951;47.712;9.400;2023-02-15T05:20:49;-0.70;99.90
5850;DHT22;2951;47.712;9.400;2023-02-15T05:23:16;-0.70;99.90
5850;DHT22;2951;47.712;9.400;2023-02-15T05:25:46;-0.80;99.90
5850;DHT22;2951;47.712;9.400;2023-02-15T05:28:31;-1.00;99.90
5850;DHT22;2951;47.712;9.400;2023-02-15T05:31:01;-1.00;99.90
5850;DHT22;2951;47.712;9.400;2023-02-15T05:33:28;-1.00;99.90
5850;DHT22;2951;47.712;9.400;2023-02-15T05:35:55;-0.90;99.90
5850;DHT22;2951;47.712;9.400;2023-02-15T05:38:22;-0.90;99.90
5850;DHT22;2951;47.712;9.400;2023-02-15T05:40:49;-1.10;99.90
5850;DHT22;2951;47.712;9.400;2023-02-15T05:43:16;-1.10;99.90
5850;DHT22;2951;47.712;9.400;2023-02-15T05:45:49;-1.10;99.90
5850;DHT22;2951;47.712;9.400;2023-02-15T05:48:16;-1.10;99.90
5850;DHT22;2951;47.712;9.400;2023-02-15T05:50:43;-1.10;99.90
5850;DHT22;2951;47.712;9.400;2023-02-15T05:53:10;-1.10;99.90
5850;DHT22;2951;47.712;9.400;2023-02-15T05:55:38;-1.20;99.90
5850;DHT22;2951;47.712;9.400;2023-02-15T05:58:05;-1.20;99.90
5850;DHT22;2951;47.712;9.400;2023-02-15T06:00:33;-1.20;99.90
5850;DHT22;2951;47.712;9.400;2023-02-15T06:03:02;-1.40;99.90
5850;DHT22;2951;47.712;9.400;2023-02-15T06:05:28;-1.20;99.90
5850;DHT22;2951;47.712;9.400;2023-02-15T06:07:55;-1.20;99.90
5850;DHT22;2951;47.712;9.400;2023-02-15T06:10:21;-1.30;99.90
5850;DHT22;2951;47.712;9.400;2023-02-15T06:12:48;-1.30;99.90
5850;DHT22;2951;47.712;9.400;2023-02-15T06:15:15;-1.20;99.90
5850;DHT22;2951;47.712;9.400;2023-02-15T06:17:41;-1.00;99.90
5850;DHT22;2951;47.712;9.400;2023-02-15T06:20:09;-0.90;99.90
5850;DHT22;2951;47.712;9.400;2023-02-15T06:35:20;-1.00;99.90
5850;DHT22;2951;47.712;9.400;2023-02-15T06:37:48;-0.90;99.90
5850;DHT22;2951;47.712;9.400;2023-02-15T06:40:15;-0.90;99.90
5850;DHT22;2951;47.712;9.400;2023-02-15T06:42:42;-1.00;99.90
5850;DHT22;2951;47.712;9.400;2023-02-15T06:45:09;-1.10;99.90
5850;DHT22;2951;47.712;9.400;2023-02-15T06:47:35;-1.20;99.90
5850;DHT22;2951;47.712;9.400;2023-02-15T06:50:04;-1.00;99.90
5850;DHT22;2951;47.712;9.400;2023-02-15T06:52:31;-1.00;99.90
5850;DHT22;2951;47.712;9.400;2023-02-15T06:54:57;-1.00;99.90
5850;DHT22;2951;47.712;9.400;2023-02-15T06:57:24;-0.90;99.90
5850;DHT22;2951;47.712;9.400;2023-02-15T06:59:51;-0.90;99.90
5850;DHT22;2951;47.712;9.400;2023-02-15T07:02:19;-0.90;99.90
5850;DHT22;2951;47.712;9.400;2023-02-15T07:04:45;-0.90;99.90
5850;DHT22;2951;47.712;9.400;2023-02-15T07:07:12;-0.90;99.90
5850;DHT22;2951;47.712;9.400;2023-02-15T07:09:39;-0.90;99.90
5850;DHT22;2951;47.712;9.400;2023-02-15T07:12:06;-0.90;99.90
5850;DHT22;2951;47.712;9.400;2023-02-15T07:14:51;-1.00;99.90
5850;DHT22;2951;47.712;9.400;2023-02-15T07:17:18;-1.00;99.90
5850;DHT22;2951;47.712;9.400;2023-02-15T07:20:05;-0.90;99.90
5850;DHT22;2951;47.712;9.400;2023-02-15T07:22:34;-1.20;99.90
5850;DHT22;2951;47.712;9.400;2023-02-15T07:25:06;-1.20;99.90
5850;DHT22;2951;47.712;9.400;2023-02-15T07:27:33;-1.20;99.90
5850;DHT22;2951;47.712;9.400;2023-02-15T07:30:00;-1.20;99.90
5850;DHT22;2951;47.712;9.400;2023-02-15T07:32:28;-1.20;99.90
5850;DHT22;2951;47.712;9.400;2023-02-15T07:34:55;-1.30;99.90
5850;DHT22;2951;47.712;9.400;2023-02-15T07:37:22;-1.20;99.90
5850;DHT22;2951;47.712;9.400;2023-02-15T07:39:49;-1.10;99.90
5850;DHT22;2951;47.712;9.400;2023-02-15T07:42:16;-1.10;99.90
5850;DHT22;2951;47.712;9.400;2023-02-15T07:44:42;-1.10;99.90
5850;DHT22;2951;47.712;9.400;2023-02-15T07:47:09;-1.00;99.90
5850;DHT22;2951;47.712;9.400;2023-02-15T07:49:35;-1.10;99.90
5850;DHT22;2951;47.712;9.400;2023-02-15T07:52:02;-0.90;99.90
5850;DHT22;2951;47.712;9.400;2023-02-15T07:54:29;-0.80;99.90
5850;DHT22;2951;47.712;9.400;2023-02-15T07:56:55;-0.80;99.90
5850;DHT22;2951;47.712;9.400;2023-02-15T07:59:22;-0.80;99.90
5850;DHT22;2951;47.712;9.400;2023-02-15T08:01:50;-0.90;99.90
5850;DHT22;2951;47.712;9.400;2023-02-15T08:04:17;-0.80;99.90
5850;DHT22;2951;47.712;9.400;2023-02-15T08:06:44;-0.70;99.90
5850;DHT22;2951;47.712;9.400;2023-02-15T08:09:11;-0.60;99.90
5850;DHT22;2951;47.712;9.400;2023-02-15T08:11:37;-0.50;99.90
5850;DHT22;2951;47.712;9.400;2023-02-15T08:14:10;-0.60;99.90
5850;DHT22;2951;47.712;9.400;2023-02-15T08:16:37;-0.50;99.90
5850;DHT22;2951;47.712;9.400;2023-02-15T08:19:15;-0.60;99.90
5850;DHT22;2951;47.712;9.400;2023-02-15T08:21:44;-0.60;99.90
5850;DHT22;2951;47.712;9.400;2023-02-15T08:24:11;-0.50;99.90
5850;DHT22;2951;47.712;9.400;2023-02-15T08:26:39;-0.70;99.90
5850;DHT22;2951;47.712;9.400;2023-02-15T08:29:08;-0.80;99.90
5850;DHT22;2951;47.712;9.400;2023-02-15T08:31:35;-0.70;99.90
5850;DHT22;2951;47.712;9.400;2023-02-15T08:34:03;-0.60;99.90
5850;DHT22;2951;47.712;9.400;2023-02-15T08:36:30;-0.50;99.90
5850;DHT22;2951;47.712;9.400;2023-02-15T08:38:58;-0.70;99.90
5850;DHT22;2951;47.712;9.400;2023-02-15T08:41:26;-0.70;99.90
5850;DHT22;2951;47.712;9.400;2023-02-15T08:43:54;-0.60;99.90
5850;DHT22;2951;47.712;9.400;2023-02-15T08:46:21;-0.50;99.90
5850;DHT22;2951;47.712;9.400;2023-02-15T08:48:48;-0.60;99.90
5850;DHT22;2951;47.712;9.400;2023-02-15T08:51:16;-0.50;99.90
5850;DHT22;2951;47.712;9.400;2023-02-15T08:53:44;-0.30;99.90
5850;DHT22;2951;47.712;9.400;2023-02-15T08:56:11;-0.20;99.90
5850;DHT22;2951;47.712;9.400;2023-02-15T08:58:38;0.00;99.90
5850;DHT22;2951;47.712;9.400;2023-02-15T09:01:09;0.00;99.90
5850;DHT22;2951;47.712;9.400;2023-02-15T09:03:35;0.20;99.90
5850;DHT22;2951;47.712;9.400;2023-02-15T09:06:03;0.20;99.90
5850;DHT22;2951;47.712;9.400;2023-02-15T09:08:30;0.20;99.90
5850;DHT22;2951;47.712;9.400;2023-02-15T09:11:13;0.20;99.90
5850;DHT22;2951;47.712;9.400;2023-02-15T09:13:43;0.40;99.90
5850;DHT22;2951;47.712;9.400;2023-02-15T09:16:11;0.40;99.90
5850;DHT22;2951;47.712;9.400;2023-02-15T09:18:38;0.60;99.90
5850;DHT22;2951;47.712;9.400;2023-02-15T09:21:23;0.60;99.90
5850;DHT22;2951;47.712;9.400;2023-02-15T09:23:51;0.60;99.90
5850;DHT22;2951;47.712;9.400;2023-02-15T09:26:19;0.60;99.90
5850;DHT22;2951;47.712;9.400;2023-02-15T09:28:46;0.60;99.90
5850;DHT22;2951;47.712;9.400;2023-02-15T09:31:17;0.80;99.90
5850;DHT22;2951;47.712;9.400;2023-02-15T09:33:45;0.80;99.90
5850;DHT22;2951;47.712;9.400;2023-02-15T09:36:16;0.70;99.90
5850;DHT22;2951;47.712;9.400;2023-02-15T09:38:43;0.70;99.90
5850;DHT22;2951;47.712;9.400;2023-02-15T09:48:40;0.30;99.90
5850;DHT22;2951;47.712;9.400;2023-02-15T09:56:31;0.40;99.90
5850;DHT22;2951;47.712;9.400;2023-02-15T10:15:13;1.50;99.90
5850;DHT22;2951;47.712;9.400;2023-02-15T10:23:02;0.90;99.90
5850;DHT22;2951;47.712;9.400;2023-02-15T10:25:34;1.00;99.90
5850;DHT22;2951;47.712;9.400;2023-02-15T10:28:15;1.10;99.90
5850;DHT22;2951;47.712;9.400;2023-02-15T10:33:16;1.20;99.90
5850;DHT22;2951;47.712;9.400;2023-02-15T10:35:50;1.40;99.90
5850;DHT22;2951;47.712;9.400;2023-02-15T10:38:20;1.50;99.90
5850;DHT22;2951;47.712;9.400;2023-02-15T10:43:41;1.20;99.90
5850;DHT22;2951;47.712;9.400;2023-02-15T10:46:20;1.10;99.90
5850;DHT22;2951;47.712;9.400;2023-02-15T10:49:03;1.30;99.90
5850;DHT22;2951;47.712;9.400;2023-02-15T11:07:26;1.70;99.90
5850;DHT22;2951;47.712;9.400;2023-02-15T11:12:43;2.00;99.90
5850;DHT22;2951;47.712;9.400;2023-02-15T11:30:23;2.50;99.90
5850;DHT22;2951;47.712;9.400;2023-02-15T11:32:55;2.20;99.90
5850;DHT22;2951;47.712;9.400;2023-02-15T11:38:11;2.10;99.90
5850;DHT22;2951;47.712;9.400;2023-02-15T11:40:41;2.30;99.90
5850;DHT22;2951;47.712;9.400;2023-02-15T11:43:12;2.20;99.90
5850;DHT22;2951;47.712;9.400;2023-02-15T11:45:41;2.40;99.90
5850;DHT22;2951;47.712;9.400;2023-02-15T11:48:09;2.30;99.90
5850;DHT22;2951;47.712;9.400;2023-02-15T11:50:37;2.30;99.90
5850;DHT22;2951;47.712;9.400;2023-02-15T11:53:06;2.30;99.90
5850;DHT22;2951;47.712;9.400;2023-02-15T11:55:35;2.10;99.90
5850;DHT22;2951;47.712;9.400;2023-02-15T12:00:41;2.30;99.90
5850;DHT22;2951;47.712;9.400;2023-02-15T12:03:11;2.10;99.90
5850;DHT22;2951;47.712;9.400;2023-02-15T12:05:40;2.30;99.90
5850;DHT22;2951;47.712;9.400;2023-02-15T12:08:20;2.20;99.90
5850;DHT22;2951;47.712;9.400;2023-02-15T12:13:29;2.60;99.90
5850;DHT22;2951;47.712;9.400;2023-02-15T12:15:57;2.60;99.90
5850;DHT22;2951;47.712;9.400;2023-02-15T12:21:11;2.70;99.90
5850;DHT22;2951;47.712;9.400;2023-02-15T12:23:46;2.90;99.90
5850;DHT22;2951;47.712;9.400;2023-02-15T12:26:14;3.10;99.90
5850;DHT22;2951;47.712;9.400;2023-02-15T12:28:42;3.10;99.90
5850;DHT22;2951;47.712;9.400;2023-02-15T12:31:20;3.10;99.90
5850;DHT22;2951;47.712;9.400;2023-02-15T12:33:48;3.30;99.90
5850;DHT22;2951;47.712;9.400;2023-02-15T12:36:18;3.30;99.90
5850;DHT22;2951;47.712;9.400;2023-02-15T12:41:30;3.30;99.90
5850;DHT22;2951;47.712;9.400;2023-02-15T12:46:29;3.10;99.90
5850;DHT22;2951;47.712;9.400;2023-02-15T12:49:10;3.30;99.90
5850;DHT22;2951;47.712;9.400;2023-02-15T12:51:45;3.40;99.90
5850;DHT22;2951;47.712;9.400;2023-02-15T12:56:50;3.60;99.90
5850;DHT22;2951;47.712;9.400;2023-02-15T12:59:18;3.60;99.90
5850;DHT22;2951;47.712;9.400;2023-02-15T13:01:48;3.60;99.90
5850;DHT22;2951;47.712;9.400;2023-02-15T13:06:46;3.60;99.90
5850;DHT22;2951;47.712;9.400;2023-02-15T13:09:15;3.60;99.90
5850;DHT22;2951;47.712;9.400;2023-02-15T13:11:43;3.50;99.90
5850;DHT22;2951;47.712;9.400;2023-02-15T13:14:17;3.40;99.90
5850;DHT22;2951;47.712;9.400;2023-02-15T13:16:45;3.50;99.90
5850;DHT22;2951;47.712;9.400;2023-02-15T13:19:15;3.50;99.90
5850;DHT22;2951;47.712;9.400;2023-02-15T13:21:44;3.50;99.90
5850;DHT22;2951;47.712;9.400;2023-02-15T13:24:32;3.60;99.90
5850;DHT22;2951;47.712;9.400;2023-02-15T13:26:59;3.60;99.90
5850;DHT22;2951;47.712;9.400;2023-02-15T13:29:42;3.50;99.90
5850;DHT22;2951;47.712;9.400;2023-02-15T13:34:39;3.60;99.90
5850;DHT22;2951;47.712;9.400;2023-02-15T13:39:49;3.90;99.90
5850;DHT22;2951;47.712;9.400;2023-02-15T13:42:19;4.00;99.90
5850;DHT22;2951;47.712;9.400;2023-02-15T13:55:37;4.20;99.90
5850;DHT22;2951;47.712;9.400;2023-02-15T13:58:26;4.20;99.90
5850;DHT22;2951;47.712;9.400;2023-02-15T14:01:00;4.40;99.90
5850;DHT22;2951;47.712;9.400;2023-02-15T14:11:48;4.60;99.90
5850;DHT22;2951;47.712;9.400;2023-02-15T14:24:58;5.90;99.90
5850;DHT22;2951;47.712;9.400;2023-02-15T14:30:03;6.80;99.90
5850;DHT22;2951;47.712;9.400;2023-02-15T14:35:30;7.40;99.90
5850;DHT22;2951;47.712;9.400;2023-02-15T14:46:01;8.40;99.90
5850;DHT22;2951;47.712;9.400;2023-02-15T14:48:43;8.60;99.90
5850;DHT22;2951;47.712;9.400;2023-02-15T14:51:16;8.80;99.90
5850;DHT22;2951;47.712;9.400;2023-02-15T14:53:57;8.80;99.90
5850;DHT22;2951;47.712;9.400;2023-02-15T14:56:24;8.70;99.90
5850;DHT22;2951;47.712;9.400;2023-02-15T15:01:31;8.10;99.90
5850;DHT22;2951;47.712;9.400;2023-02-15T15:07:08;8.30;99.90
5850;DHT22;2951;47.712;9.400;2023-02-15T15:09:36;8.70;99.90
5850;DHT22;2951;47.712;9.400;2023-02-15T15:12:13;9.00;99.90
5850;DHT22;2951;47.712;9.400;2023-02-15T15:14:41;8.90;99.90
5850;DHT22;2951;47.712;9.400;2023-02-15T15:17:12;8.90;99.90
5850;DHT22;2951;47.712;9.400;2023-02-15T15:22:20;8.60;99.90
5850;DHT22;2951;47.712;9.400;2023-02-15T15:25:00;8.20;99.90
5850;DHT22;2951;47.712;9.400;2023-02-15T15:27:36;8.10;99.90
5850;DHT22;2951;47.712;9.400;2023-02-15T15:46:03;5.20;99.90
5850;DHT22;2951;47.712;9.400;2023-02-15T15:48:40;5.00;99.90
5850;DHT22;2951;47.712;9.400;2023-02-15T15:54:17;4.50;99.90
5850;DHT22;2951;47.712;9.400;2023-02-15T15:56:44;4.50;99.90
5850;DHT22;2951;47.712;9.400;2023-02-15T15:59:15;4.40;99.90
5850;DHT22;2951;47.712;9.400;2023-02-15T16:01:46;4.50;99.90
5850;DHT22;2951;47.712;9.400;2023-02-15T16:04:14;4.30;99.90
5850;DHT22;2951;47.712;9.400;2023-02-15T16:06:48;4.10;99.90
5850;DHT22;2951;47.712;9.400;2023-02-15T16:09:22;3.70;99.90
5850;DHT22;2951;47.712;9.400;2023-02-15T16:11:52;3.50;99.90
5850;DHT22;2951;47.712;9.400;2023-02-15T16:14:25;3.30;99.90
5850;DHT22;2951;47.712;9.400;2023-02-15T16:16:54;3.30;99.90
5850;DHT22;2951;47.712;9.400;2023-02-15T16:19:22;3.30;99.90
5850;DHT22;2951;47.712;9.400;2023-02-15T16:21:50;3.30;99.90
5850;DHT22;2951;47.712;9.400;2023-02-15T16:25:03;3.30;99.90
5850;DHT22;2951;47.712;9.400;2023-02-15T16:29:36;3.20;99.90
5850;DHT22;2951;47.712;9.400;2023-02-15T16:32:04;3.10;99.90
5850;DHT22;2951;47.712;9.400;2023-02-15T16:34:32;3.00;99.90
5850;DHT22;2951;47.712;9.400;2023-02-15T16:37:14;2.90;99.90
5850;DHT22;2951;47.712;9.400;2023-02-15T16:39:42;2.80;99.90
5850;DHT22;2951;47.712;9.400;2023-02-15T16:42:09;2.80;99.90
5850;DHT22;2951;47.712;9.400;2023-02-15T16:44:37;2.70;99.90
5850;DHT22;2951;47.712;9.400;2023-02-15T16:47:03;2.70;99.90
5850;DHT22;2951;47.712;9.400;2023-02-15T16:49:30;2.80;99.90
5850;DHT22;2951;47.712;9.400;2023-02-15T16:54:25;2.60;99.90
5850;DHT22;2951;47.712;9.400;2023-02-15T16:56:53;2.60;99.90
5850;DHT22;2951;47.712;9.400;2023-02-15T16:59:36;2.50;99.90
5850;DHT22;2951;47.712;9.400;2023-02-15T17:02:06;2.40;99.90
5850;DHT22;2951;47.712;9.400;2023-02-15T17:04:36;2.10;99.90
5850;DHT22;2951;47.712;9.400;2023-02-15T17:09:32;2.10;99.90
5850;DHT22;2951;47.712;9.400;2023-02-15T17:11:59;2.10;99.90
5850;DHT22;2951;47.712;9.400;2023-02-15T17:14:29;2.10;99.90
5850;DHT22;2951;47.712;9.400;2023-02-15T17:17:00;2.00;99.90
5850;DHT22;2951;47.712;9.400;2023-02-15T17:19:28;2.00;99.90
5850;DHT22;2951;47.712;9.400;2023-02-15T17:22:04;2.00;99.90
5850;DHT22;2951;47.712;9.400;2023-02-15T17:24:34;1.80;99.90
5850;DHT22;2951;47.712;9.400;2023-02-15T17:27:03;1.70;99.90
5850;DHT22;2951;47.712;9.400;2023-02-15T17:29:35;1.60;99.90
5850;DHT22;2951;47.712;9.400;2023-02-15T17:32:02;1.60;99.90
5850;DHT22;2951;47.712;9.400;2023-02-15T17:39:51;1.80;99.90
5850;DHT22;2951;47.712;9.400;2023-02-15T17:42:17;1.70;99.90
5850;DHT22;2951;47.712;9.400;2023-02-15T17:44:44;1.70;99.90
5850;DHT22;2951;47.712;9.400;2023-02-15T17:47:14;1.60;99.90
5850;DHT22;2951;47.712;9.400;2023-02-15T17:49:42;1.60;99.90
5850;DHT22;2951;47.712;9.400;2023-02-15T17:52:11;1.50;99.90
5850;DHT22;2951;47.712;9.400;2023-02-15T17:54:38;1.50;99.90
5850;DHT22;2951;47.712;9.400;2023-02-15T17:57:23;1.30;99.90
5850;DHT22;2951;47.712;9.400;2023-02-15T17:59:51;1.40;99.90
5850;DHT22;2951;47.712;9.400;2023-02-15T18:02:37;1.30;99.90
5850;DHT22;2951;47.712;9.400;2023-02-15T18:05:22;1.30;99.90
5850;DHT22;2951;47.712;9.400;2023-02-15T18:08:11;1.30;99.90
5850;DHT22;2951;47.712;9.400;2023-02-15T18:10:56;1.30;99.90
5850;DHT22;2951;47.712;9.400;2023-02-15T18:13:41;1.10;99.90
5850;DHT22;2951;47.712;9.400;2023-02-15T18:16:15;1.20;99.90
5850;DHT22;2951;47.712;9.400;2023-02-15T18:18:43;1.20;99.90
5850;DHT22;2951;47.712;9.400;2023-02-15T18:21:10;1.20;99.90
5850;DHT22;2951;47.712;9.400;2023-02-15T18:23:38;1.10;99.90
5850;DHT22;2951;47.712;9.400;2023-02-15T18:26:04;1.10;99.90
5850;DHT22;2951;47.712;9.400;2023-02-15T18:28:31;1.10;99.90
5850;DHT22;2951;47.712;9.400;2023-02-15T18:30:59;1.00;99.90
5850;DHT22;2951;47.712;9.400;2023-02-15T18:33:33;1.00;99.90
5850;DHT22;2951;47.712;9.400;2023-02-15T18:36:01;0.90;99.90
5850;DHT22;2951;47.712;9.400;2023-02-15T18:38:29;0.90;99.90
5850;DHT22;2951;47.712;9.400;2023-02-15T18:40:55;0.80;99.90
5850;DHT22;2951;47.712;9.400;2023-02-15T18:43:22;0.80;99.90
5850;DHT22;2951;47.712;9.400;2023-02-15T18:45:49;0.60;99.90
5850;DHT22;2951;47.712;9.400;2023-02-15T18:48:15;0.50;99.90
5850;DHT22;2951;47.712;9.400;2023-02-15T18:50:42;0.40;99.90
5850;DHT22;2951;47.712;9.400;2023-02-15T18:53:16;0.40;99.90
5850;DHT22;2951;47.712;9.400;2023-02-15T18:55:44;0.50;99.90
5850;DHT22;2951;47.712;9.400;2023-02-15T18:58:20;0.50;99.90
5850;DHT22;2951;47.712;9.400;2023-02-15T19:00:47;0.40;99.90
5850;DHT22;2951;47.712;9.400;2023-02-15T19:03:16;0.40;99.90
5850;DHT22;2951;47.712;9.400;2023-02-15T19:05:44;0.50;99.90
5850;DHT22;2951;47.712;9.400;2023-02-15T19:08:18;0.60;99.90
5850;DHT22;2951;47.712;9.400;2023-02-15T19:10:47;0.60;99.90
5850;DHT22;2951;47.712;9.400;2023-02-15T19:13:14;0.70;99.90
5850;DHT22;2951;47.712;9.400;2023-02-15T19:15:41;0.60;99.90
5850;DHT22;2951;47.712;9.400;2023-02-15T19:18:07;0.50;99.90
5850;DHT22;2951;47.712;9.400;2023-02-15T19:23:00;0.60;99.90
5850;DHT22;2951;47.712;9.400;2023-02-15T19:25:28;0.60;99.90
5850;DHT22;2951;47.712;9.400;2023-02-15T19:27:56;0.50;99.90
5850;DHT22;2951;47.712;9.400;2023-02-15T19:30:27;0.60;99.90
5850;DHT22;2951;47.712;9.400;2023-02-15T19:32:55;0.60;99.90
5850;DHT22;2951;47.712;9.400;2023-02-15T19:35:23;0.60;99.90
5850;DHT22;2951;47.712;9.400;2023-02-15T19:37:52;0.60;99.90
5850;DHT22;2951;47.712;9.400;2023-02-15T19:40:20;0.60;99.90
5850;DHT22;2951;47.712;9.400;2023-02-15T19:42:47;0.60;99.90
5850;DHT22;2951;47.712;9.400;2023-02-15T19:45:14;0.70;99.90
5850;DHT22;2951;47.712;9.400;2023-02-15T19:47:41;0.60;99.90
5850;DHT22;2951;47.712;9.400;2023-02-15T19:50:18;0.50;99.90
5850;DHT22;2951;47.712;9.400;2023-02-15T19:52:45;0.50;99.90
5850;DHT22;2951;47.712;9.400;2023-02-15T19:57:41;0.50;99.90
5850;DHT22;2951;47.712;9.400;2023-02-15T20:00:14;0.40;99.90
5850;DHT22;2951;47.712;9.400;2023-02-15T20:02:47;0.40;99.90
5850;DHT22;2951;47.712;9.400;2023-02-15T20:05:14;0.40;99.90
5850;DHT22;2951;47.712;9.400;2023-02-15T20:07:41;0.20;99.90
5850;DHT22;2951;47.712;9.400;2023-02-15T20:12:43;0.10;99.90
5850;DHT22;2951;47.712;9.400;2023-02-15T20:15:17;0.20;99.90